sensor_id;sensor_type;location;lat;lon;timestamp;P1;durP1;ratioP1;P2;durP2;ratioP2
32106;SDS011;18622;51.998;10.440;2023-10-13T03:30:55;13.95;;;4.35;;
32106;SDS011;18622;51.998;10.440;2023-10-13T03:33:25;10.60;;;4.62;;
32106;SDS011;18622;51.998;10.440;2023-10-13T03:35:52;7.27;;;3.60;;
32106;SDS011;18622;51.998;10.440;2023-10-13T03:38:22;6.40;;;4.20;;
32106;SDS011;18622;51.998;10.440;2023-10-13T03:40:51;8.30;;;4.53;;
32106;SDS011;18622;51.998;10.440;2023-10-13T03:43:23;3.70;;;3.30;;
32106;SDS011;18622;51.998;10.440;2023-10-13T03:48:20;5.55;;;3.90;;
32106;SDS011;18622;51.998;10.440;2023-10-13T03:50:53;7.70;;;3.70;;
32106;SDS011;18622;51.998;10.440;2023-10-13T03:53:40;5.60;;;3.20;;
32106;SDS011;18622;51.998;10.440;2023-10-13T03:56:21;7.03;;;3.10;;
32106;SDS011;18622;51.998;10.440;2023-10-13T03:58:53;3.73;;;3.23;;
32106;SDS011;18622;51.998;10.440;2023-10-13T04:01:23;4.85;;;3.37;;
32106;SDS011;18622;51.998;10.440;2023-10-13T04:03:52;5.78;;;3.10;;
32106;SDS011;18622;51.998;10.440;2023-10-13T04:06:25;9.35;;;3.15;;
32106;SDS011;18622;51.998;10.440;2023-10-13T04:08:54;4.78;;;2.80;;
32106;SDS011;18622;51.998;10.440;2023-10-13T04:11:33;5.87;;;2.73;;
32106;SDS011;18622;51.998;10.440;2023-10-13T04:14:17;5.83;;;2.70;;
32106;SDS011;18622;51.998;10.440;2023-10-13T04:16:53;5.03;;;3.00;;
32106;SDS011;18622;51.998;10.440;2023-10-13T04:19:21;5.67;;;2.80;;
32106;SDS011;18622;51.998;10.440;2023-10-13T04:21:53;6.27;;;3.37;;
32106;SDS011;18622;51.998;10.440;2023-10-13T04:24:24;9.45;;;3.00;;
32106;SDS011;18622;51.998;10.440;2023-10-13T04:27:07;5.90;;;2.97;;
32106;SDS011;18622;51.998;10.440;2023-10-13T04:29:40;6.40;;;2.58;;
32106;SDS011;18622;51.998;10.440;2023-10-13T04:32:18;4.90;;;2.87;;
32106;SDS011;18622;51.998;10.440;2023-10-13T04:34:48;4.83;;;3.00;;
32106;SDS011;18622;51.998;10.440;2023-10-13T04:37:18;5.47;;;2.87;;
32106;SDS011;18622;51.998;10.440;2023-10-13T04:39:56;5.93;;;2.93;;
32106;SDS011;18622;51.998;10.440;2023-10-13T04:42:28;5.45;;;2.92;;
32106;SDS011;18622;51.998;10.440;2023-10-13T04:45:14;10.50;;;3.60;;
32106;SDS011;18622;51.998;10.440;2023-10-13T04:47:45;5.45;;;3.27;;
32106;SDS011;18622;51.998;10.440;2023-10-13T04:50:14;4.83;;;3.17;;
32106;SDS011;18622;51.998;10.440;2023-10-13T04:52:44;6.15;;;2.90;;
32106;SDS011;18622;51.998;10.440;2023-10-13T04:55:13;8.10;;;2.92;;
32106;SDS011;18622;51.998;10.440;2023-10-13T04:57:52;6.87;;;3.03;;
32106;SDS011;18622;51.998;10.440;2023-10-13T05:00:21;7.08;;;2.98;;
32106;SDS011;18622;51.998;10.440;2023-10-13T05:03:03;5.63;;;3.17;;
32106;SDS011;18622;51.998;10.440;2023-10-13T05:05:49;4.73;;;3.07;;
32106;SDS011;18622;51.998;10.440;2023-10-13T05:08:34;4.73;;;2.80;;
32106;SDS011;18622;51.998;10.440;2023-10-13T05:11:20;11.57;;;3.40;;
32106;SDS011;18622;51.998;10.440;2023-10-13T05:14:06;5.73;;;2.77;;
32106;SDS011;18622;51.998;10.440;2023-10-13T05:16:35;4.25;;;2.72;;
32106;SDS011;18622;51.998;10.440;2023-10-13T05:19:21;4.87;;;2.70;;
32106;SDS011;18622;51.998;10.440;2023-10-13T05:22:07;4.13;;;3.10;;
32106;SDS011;18622;51.998;10.440;2023-10-13T05:24:52;7.93;;;3.63;;
32106;SDS011;18622;51.998;10.440;2023-10-13T05:27:38;4.37;;;3.03;;
32106;SDS011;18622;51.998;10.440;2023-10-13T05:30:14;10.70;;;3.13;;
32106;SDS011;18622;51.998;10.440;2023-10-13T05:33:00;10.00;;;3.27;;
32106;SDS011;18622;51.998;10.440;2023-10-13T05:35:45;7.53;;;2.93;;
32106;SDS011;18622;51.998;10.440;2023-10-13T05:38:31;8.03;;;3.37;;
32106;SDS011;18622;51.998;10.440;2023-10-13T05:41:16;9.37;;;3.67;;
32106;SDS011;18622;51.998;10.440;2023-10-13T05:44:02;5.90;;;2.93;;
32106;SDS011;18622;51.998;10.440;2023-10-13T05:46:48;5.37;;;3.00;;
32106;SDS011;18622;51.998;10.440;2023-10-13T05:49:18;4.42;;;3.12;;
32106;SDS011;18622;51.998;10.440;2023-10-13T05:52:00;5.43;;;3.43;;
32106;SDS011;18622;51.998;10.440;2023-10-13T05:54:35;4.23;;;2.97;;
32106;SDS011;18622;51.998;10.440;2023-10-13T05:57:07;6.97;;;3.40;;
32106;SDS011;18622;51.998;10.440;2023-10-13T05:59:53;7.23;;;3.20;;
32106;SDS011;18622;51.998;10.440;2023-10-13T06:02:39;8.30;;;3.50;;
32106;SDS011;18622;51.998;10.440;2023-10-13T06:05:25;7.07;;;3.33;;
32106;SDS011;18622;51.998;10.440;2023-10-13T06:08:10;8.57;;;3.10;;
32106;SDS011;18622;51.998;10.440;2023-10-13T06:11:03;7.00;;;2.97;;
32106;SDS011;18622;51.998;10.440;2023-10-13T06:16:29;9.77;;;3.17;;
32106;SDS011;18622;51.998;10.440;2023-10-13T06:19:14;8.43;;;2.80;;
32106;SDS011;18622;51.998;10.440;2023-10-13T06:22:00;6.30;;;2.93;;
32106;SDS011;18622;51.998;10.440;2023-10-13T06:24:46;4.60;;;3.03;;
32106;SDS011;18622;51.998;10.440;2023-10-13T06:27:32;7.40;;;3.00;;
32106;SDS011;18622;51.998;10.440;2023-10-13T06:30:18;7.93;;;3.00;;
32106;SDS011;18622;51.998;10.440;2023-10-13T06:32:45;5.60;;;2.87;;
32106;SDS011;18622;51.998;10.440;2023-10-13T06:35:13;8.53;;;3.37;;
32106;SDS011;18622;51.998;10.440;2023-10-13T06:37:51;5.60;;;2.80;;
32106;SDS011;18622;51.998;10.440;2023-10-13T06:40:19;7.67;;;2.63;;
32106;SDS011;18622;51.998;10.440;2023-10-13T06:42:54;6.03;;;2.53;;
32106;SDS011;18622;51.998;10.440;2023-10-13T06:45:24;8.15;;;2.92;;
32106;SDS011;18622;51.998;10.440;2023-10-13T06:47:53;8.65;;;2.83;;
32106;SDS011;18622;51.998;10.440;2023-10-13T06:50:23;6.92;;;2.95;;
32106;SDS011;18622;51.998;10.440;2023-10-13T06:52:51;8.63;;;3.13;;
32106;SDS011;18622;51.998;10.440;2023-10-13T06:55:20;6.00;;;2.77;;
32106;SDS011;18622;51.998;10.440;2023-10-13T06:57:56;9.30;;;2.97;;
32106;SDS011;18622;51.998;10.440;2023-10-13T07:00:27;7.12;;;2.58;;
32106;SDS011;18622;51.998;10.440;2023-10-13T07:02:56;3.75;;;2.50;;
32106;SDS011;18622;51.998;10.440;2023-10-13T07:05:25;4.63;;;2.93;;
32106;SDS011;18622;51.998;10.440;2023-10-13T07:07:53;7.97;;;3.10;;
32106;SDS011;18622;51.998;10.440;2023-10-13T07:10:23;8.95;;;3.20;;
32106;SDS011;18622;51.998;10.440;2023-10-13T07:12:52;7.00;;;3.37;;
32106;SDS011;18622;51.998;10.440;2023-10-13T07:15:21;7.42;;;3.17;;
32106;SDS011;18622;51.998;10.440;2023-10-13T07:17:51;8.68;;;3.10;;
32106;SDS011;18622;51.998;10.440;2023-10-13T07:20:25;9.67;;;2.53;;
32106;SDS011;18622;51.998;10.440;2023-10-13T07:22:57;7.35;;;3.02;;
32106;SDS011;18622;51.998;10.440;2023-10-13T07:25:33;5.30;;;2.60;;
32106;SDS011;18622;51.998;10.440;2023-10-13T07:30:34;5.08;;;2.55;;
32106;SDS011;18622;51.998;10.440;2023-10-13T07:33:22;5.53;;;2.53;;
32106;SDS011;18622;51.998;10.440;2023-10-13T07:36:05;7.87;;;2.63;;
32106;SDS011;18622;51.998;10.440;2023-10-13T07:38:39;10.60;;;3.27;;
32106;SDS011;18622;51.998;10.440;2023-10-13T07:41:09;10.95;;;2.75;;
32106;SDS011;18622;51.998;10.440;2023-10-13T07:43:38;7.00;;;3.17;;
32106;SDS011;18622;51.998;10.440;2023-10-13T07:46:06;5.63;;;2.93;;
32106;SDS011;18622;51.998;10.440;2023-10-13T07:48:36;2.85;;;2.47;;
32106;SDS011;18622;51.998;10.440;2023-10-13T07:51:06;7.55;;;2.85;;
32106;SDS011;18622;51.998;10.440;2023-10-13T07:53:39;5.60;;;2.77;;
32106;SDS011;18622;51.998;10.440;2023-10-13T07:58:38;8.93;;;2.43;;
32106;SDS011;18622;51.998;10.440;2023-10-13T08:01:24;7.50;;;2.00;;
32106;SDS011;18622;51.998;10.440;2023-10-13T08:03:52;8.80;;;2.20;;
32106;SDS011;18622;51.998;10.440;2023-10-13T08:06:24;5.83;;;2.25;;
32106;SDS011;18622;51.998;10.440;2023-10-13T08:08:54;4.80;;;2.40;;
32106;SDS011;18622;51.998;10.440;2023-10-13T08:11:23;10.05;;;2.40;;
32106;SDS011;18622;51.998;10.440;2023-10-13T08:13:53;7.20;;;2.20;;
32106;SDS011;18622;51.998;10.440;2023-10-13T08:16:28;4.97;;;2.27;;
32106;SDS011;18622;51.998;10.440;2023-10-13T08:19:17;5.93;;;2.40;;
32106;SDS011;18622;51.998;10.440;2023-10-13T08:21:54;3.00;;;2.17;;
32106;SDS011;18622;51.998;10.440;2023-10-13T08:24:29;5.77;;;2.47;;
32106;SDS011;18622;51.998;10.440;2023-10-13T08:27:07;5.10;;;2.23;;
32106;SDS011;18622;51.998;10.440;2023-10-13T08:29:47;3.73;;;2.20;;
32106;SDS011;18622;51.998;10.440;2023-10-13T08:32:24;8.37;;;2.40;;
32106;SDS011;18622;51.998;10.440;2023-10-13T08:35:00;8.50;;;2.80;;
32106;SDS011;18622;51.998;10.440;2023-10-13T08:37:31;2.27;;;1.87;;
32106;SDS011;18622;51.998;10.440;2023-10-13T08:40:01;5.80;;;2.53;;
32106;SDS011;18622;51.998;10.440;2023-10-13T08:47:51;3.40;;;2.30;;
32106;SDS011;18622;51.998;10.440;2023-10-13T08:50:22;3.17;;;2.20;;
32106;SDS011;18622;51.998;10.440;2023-10-13T08:53:08;6.23;;;2.30;;
32106;SDS011;18622;51.998;10.440;2023-10-13T08:55:37;6.17;;;2.50;;
32106;SDS011;18622;51.998;10.440;2023-10-13T08:58:07;5.53;;;2.30;;
32106;SDS011;18622;51.998;10.440;2023-10-13T09:00:46;6.00;;;2.50;;
32106;SDS011;18622;51.998;10.440;2023-10-13T09:03:25;7.87;;;2.27;;
32106;SDS011;18622;51.998;10.440;2023-10-13T09:05:55;4.00;;;2.40;;
32106;SDS011;18622;51.998;10.440;2023-10-13T09:08:28;7.73;;;2.90;;
32106;SDS011;18622;51.998;10.440;2023-10-13T09:11:02;5.03;;;2.40;;
32106;SDS011;18622;51.998;10.440;2023-10-13T09:13:38;8.33;;;2.60;;
32106;SDS011;18622;51.998;10.440;2023-10-13T09:16:12;7.60;;;2.93;;
32106;SDS011;18622;51.998;10.440;2023-10-13T09:19:07;5.67;;;2.53;;
32106;SDS011;18622;51.998;10.440;2023-10-13T09:21:40;12.33;;;2.60;;
32106;SDS011;18622;51.998;10.440;2023-10-13T09:24:13;7.95;;;2.72;;
32106;SDS011;18622;51.998;10.440;2023-10-13T09:26:58;7.33;;;2.90;;
32106;SDS011;18622;51.998;10.440;2023-10-13T09:29:28;9.50;;;3.27;;
32106;SDS011;18622;51.998;10.440;2023-10-13T09:32:03;9.43;;;3.00;;
32106;SDS011;18622;51.998;10.440;2023-10-13T09:34:30;11.67;;;2.83;;
32106;SDS011;18622;51.998;10.440;2023-10-13T09:36:59;7.85;;;2.83;;
32106;SDS011;18622;51.998;10.440;2023-10-13T09:41:58;6.67;;;3.07;;
32106;SDS011;18622;51.998;10.440;2023-10-13T09:44:26;7.60;;;3.03;;
32106;SDS011;18622;51.998;10.440;2023-10-13T09:46:59;8.60;;;2.83;;
32106;SDS011;18622;51.998;10.440;2023-10-13T09:49:39;10.87;;;3.30;;
32106;SDS011;18622;51.998;10.440;2023-10-13T09:52:14;7.10;;;3.47;;
32106;SDS011;18622;51.998;10.440;2023-10-13T09:55:09;11.93;;;3.23;;
32106;SDS011;18622;51.998;10.440;2023-10-13T09:57:31;11.67;;;3.40;;
32106;SDS011;18622;51.998;10.440;2023-10-13T10:00:17;11.57;;;3.20;;
32106;SDS011;18622;51.998;10.440;2023-10-13T10:03:05;9.33;;;3.02;;
32106;SDS011;18622;51.998;10.440;2023-10-13T10:05:58;11.83;;;3.17;;
32106;SDS011;18622;51.998;10.440;2023-10-13T10:08:32;13.13;;;3.30;;
32106;SDS011;18622;51.998;10.440;2023-10-13T10:13:37;11.50;;;3.37;;
32106;SDS011;18622;51.998;10.440;2023-10-13T10:16:21;11.90;;;3.20;;
32106;SDS011;18622;51.998;10.440;2023-10-13T10:18:59;8.93;;;3.50;;
32106;SDS011;18622;51.998;10.440;2023-10-13T10:21:35;8.23;;;3.13;;
32106;SDS011;18622;51.998;10.440;2023-10-13T10:24:14;11.00;;;3.20;;
32106;SDS011;18622;51.998;10.440;2023-10-13T10:26:50;10.30;;;2.80;;
32106;SDS011;18622;51.998;10.440;2023-10-13T10:29:19;5.43;;;2.90;;
32106;SDS011;18622;51.998;10.440;2023-10-13T10:31:47;8.40;;;3.20;;
32106;SDS011;18622;51.998;10.440;2023-10-13T10:34:17;10.90;;;3.25;;
32106;SDS011;18622;51.998;10.440;2023-10-13T10:36:48;17.53;;;3.60;;
32106;SDS011;18622;51.998;10.440;2023-10-13T10:39:33;10.45;;;3.12;;
32106;SDS011;18622;51.998;10.440;2023-10-13T10:42:11;7.53;;;3.20;;
32106;SDS011;18622;51.998;10.440;2023-10-13T10:44:45;11.20;;;3.90;;
32106;SDS011;18622;51.998;10.440;2023-10-13T10:47:14;8.08;;;3.47;;
32106;SDS011;18622;51.998;10.440;2023-10-13T10:49:57;14.47;;;3.63;;
32106;SDS011;18622;51.998;10.440;2023-10-13T10:52:27;12.50;;;3.55;;
32106;SDS011;18622;51.998;10.440;2023-10-13T10:55:00;9.38;;;3.05;;
32106;SDS011;18622;51.998;10.440;2023-10-13T10:57:28;12.63;;;3.00;;
32106;SDS011;18622;51.998;10.440;2023-10-13T10:59:57;10.70;;;3.12;;
32106;SDS011;18622;51.998;10.440;2023-10-13T11:02:30;14.27;;;3.20;;
32106;SDS011;18622;51.998;10.440;2023-10-13T11:04:58;14.35;;;3.90;;
32106;SDS011;18622;51.998;10.440;2023-10-13T11:07:25;10.67;;;3.60;;
32106;SDS011;18622;51.998;10.440;2023-10-13T11:09:54;8.67;;;3.67;;
32106;SDS011;18622;51.998;10.440;2023-10-13T11:12:33;7.20;;;3.43;;
32106;SDS011;18622;51.998;10.440;2023-10-13T11:15:01;12.57;;;4.33;;
32106;SDS011;18622;51.998;10.440;2023-10-13T11:17:42;12.63;;;3.80;;
32106;SDS011;18622;51.998;10.440;2023-10-13T11:20:17;8.63;;;3.50;;
32106;SDS011;18622;51.998;10.440;2023-10-13T11:25:27;11.30;;;4.30;;
32106;SDS011;18622;51.998;10.440;2023-10-13T11:27:58;13.53;;;3.50;;
32106;SDS011;18622;51.998;10.440;2023-10-13T11:30:29;13.57;;;3.73;;
32106;SDS011;18622;51.998;10.440;2023-10-13T11:33:06;9.33;;;3.57;;
32106;SDS011;18622;51.998;10.440;2023-10-13T11:35:38;9.27;;;3.77;;
32106;SDS011;18622;51.998;10.440;2023-10-13T11:38:17;15.20;;;4.90;;
32106;SDS011;18622;51.998;10.440;2023-10-13T11:40:57;9.37;;;3.90;;
32106;SDS011;18622;51.998;10.440;2023-10-13T11:43:36;7.87;;;3.30;;
32106;SDS011;18622;51.998;10.440;2023-10-13T11:46:11;8.80;;;4.00;;
32106;SDS011;18622;51.998;10.440;2023-10-13T11:48:42;17.27;;;3.67;;
32106;SDS011;18622;51.998;10.440;2023-10-13T11:51:13;14.30;;;4.00;;
32106;SDS011;18622;51.998;10.440;2023-10-13T11:53:44;8.90;;;3.63;;
32106;SDS011;18622;51.998;10.440;2023-10-13T11:56:14;18.17;;;4.23;;
32106;SDS011;18622;51.998;10.440;2023-10-13T12:01:11;13.40;;;3.80;;
32106;SDS011;18622;51.998;10.440;2023-10-13T12:03:42;22.47;;;4.87;;
32106;SDS011;18622;51.998;10.440;2023-10-13T12:06:29;14.73;;;3.73;;
32106;SDS011;18622;51.998;10.440;2023-10-13T12:09:06;13.40;;;4.10;;
32106;SDS011;18622;51.998;10.440;2023-10-13T12:11:46;18.97;;;4.10;;
32106;SDS011;18622;51.998;10.440;2023-10-13T12:14:20;14.30;;;4.50;;
32106;SDS011;18622;51.998;10.440;2023-10-13T12:16:49;20.10;;;4.47;;
32106;SDS011;18622;51.998;10.440;2023-10-13T12:19:19;16.30;;;4.17;;
32106;SDS011;18622;51.998;10.440;2023-10-13T12:21:50;10.63;;;3.73;;
32106;SDS011;18622;51.998;10.440;2023-10-13T12:24:21;14.67;;;4.67;;
32106;SDS011;18622;51.998;10.440;2023-10-13T12:27:04;10.77;;;4.40;;
32106;SDS011;18622;51.998;10.440;2023-10-13T12:29:35;15.70;;;4.85;;
32106;SDS011;18622;51.998;10.440;2023-10-13T12:32:03;13.33;;;4.53;;
32106;SDS011;18622;51.998;10.440;2023-10-13T12:34:38;11.37;;;4.33;;
32106;SDS011;18622;51.998;10.440;2023-10-13T12:37:14;24.63;;;6.07;;
32106;SDS011;18622;51.998;10.440;2023-10-13T12:40:00;11.70;;;4.23;;
32106;SDS011;18622;51.998;10.440;2023-10-13T12:42:47;15.10;;;3.90;;
32106;SDS011;18622;51.998;10.440;2023-10-13T12:45:39;15.10;;;4.53;;
32106;SDS011;18622;51.998;10.440;2023-10-13T12:48:23;15.30;;;4.57;;
32106;SDS011;18622;51.998;10.440;2023-10-13T12:51:09;8.30;;;4.20;;
32106;SDS011;18622;51.998;10.440;2023-10-13T12:53:50;10.63;;;4.33;;
32106;SDS011;18622;51.998;10.440;2023-10-13T12:56:19;11.27;;;3.83;;
32106;SDS011;18622;51.998;10.440;2023-10-13T12:58:54;10.30;;;4.07;;
32106;SDS011;18622;51.998;10.440;2023-10-13T13:01:24;12.83;;;3.67;;
32106;SDS011;18622;51.998;10.440;2023-10-13T13:03:53;8.88;;;4.08;;
32106;SDS011;18622;51.998;10.440;2023-10-13T13:06:27;17.27;;;4.12;;
32106;SDS011;18622;51.998;10.440;2023-10-13T13:08:58;14.03;;;4.33;;
32106;SDS011;18622;51.998;10.440;2023-10-13T13:11:27;11.60;;;4.40;;
32106;SDS011;18622;51.998;10.440;2023-10-13T13:13:57;16.25;;;3.87;;
32106;SDS011;18622;51.998;10.440;2023-10-13T13:16:25;11.23;;;4.27;;
32106;SDS011;18622;51.998;10.440;2023-10-13T13:21:21;12.98;;;4.10;;
32106;SDS011;18622;51.998;10.440;2023-10-13T13:23:53;11.60;;;4.20;;
32106;SDS011;18622;51.998;10.440;2023-10-13T13:26:24;11.93;;;4.43;;
32106;SDS011;18622;51.998;10.440;2023-10-13T13:28:52;19.10;;;4.90;;
32106;SDS011;18622;51.998;10.440;2023-10-13T13:31:21;10.88;;;4.17;;
32106;SDS011;18622;51.998;10.440;2023-10-13T13:33:54;11.93;;;4.33;;
32106;SDS011;18622;51.998;10.440;2023-10-13T13:36:22;9.08;;;3.75;;
32106;SDS011;18622;51.998;10.440;2023-10-13T13:38:50;13.87;;;5.30;;
32106;SDS011;18622;51.998;10.440;2023-10-13T13:41:20;16.70;;;4.00;;
32106;SDS011;18622;51.998;10.440;2023-10-13T13:43:48;14.43;;;4.33;;
32106;SDS011;18622;51.998;10.440;2023-10-13T13:46:19;12.30;;;4.50;;
32106;SDS011;18622;51.998;10.440;2023-10-13T13:48:48;14.87;;;4.33;;
32106;SDS011;18622;51.998;10.440;2023-10-13T13:51:17;18.05;;;4.03;;
32106;SDS011;18622;51.998;10.440;2023-10-13T13:53:49;10.97;;;5.00;;
32106;SDS011;18622;51.998;10.440;2023-10-13T13:56:18;17.30;;;4.70;;
32106;SDS011;18622;51.998;10.440;2023-10-13T13:58:46;14.17;;;5.00;;
32106;SDS011;18622;51.998;10.440;2023-10-13T14:01:20;10.67;;;4.27;;
32106;SDS011;18622;51.998;10.440;2023-10-13T14:03:49;14.50;;;4.93;;
32106;SDS011;18622;51.998;10.440;2023-10-13T14:06:20;13.48;;;4.90;;
32106;SDS011;18622;51.998;10.440;2023-10-13T14:08:51;16.77;;;5.30;;
32106;SDS011;18622;51.998;10.440;2023-10-13T14:11:31;12.50;;;4.23;;
32106;SDS011;18622;51.998;10.440;2023-10-13T14:14:13;6.33;;;3.80;;
32106;SDS011;18622;51.998;10.440;2023-10-13T14:16:53;11.73;;;4.70;;
32106;SDS011;18622;51.998;10.440;2023-10-13T14:19:23;17.05;;;5.28;;
32106;SDS011;18622;51.998;10.440;2023-10-13T14:21:54;10.55;;;4.28;;
32106;SDS011;18622;51.998;10.440;2023-10-13T14:24:25;13.37;;;4.43;;
32106;SDS011;18622;51.998;10.440;2023-10-13T14:26:54;12.83;;;4.87;;
32106;SDS011;18622;51.998;10.440;2023-10-13T14:29:22;13.10;;;4.17;;
32106;SDS011;18622;51.998;10.440;2023-10-13T14:34:18;9.75;;;4.47;;
32106;SDS011;18622;51.998;10.440;2023-10-13T14:36:48;11.15;;;4.35;;
32106;SDS011;18622;51.998;10.440;2023-10-13T14:39:15;20.57;;;5.33;;
32106;SDS011;18622;51.998;10.440;2023-10-13T14:41:45;10.23;;;4.45;;
32106;SDS011;18622;51.998;10.440;2023-10-13T14:44:14;8.45;;;4.10;;
32106;SDS011;18622;51.998;10.440;2023-10-13T14:46:41;9.37;;;4.23;;
32106;SDS011;18622;51.998;10.440;2023-10-13T14:49:09;14.53;;;4.63;;
32106;SDS011;18622;51.998;10.440;2023-10-13T14:51:39;11.10;;;4.22;;
32106;SDS011;18622;51.998;10.440;2023-10-13T14:54:06;12.47;;;4.17;;
32106;SDS011;18622;51.998;10.440;2023-10-13T14:56:34;13.20;;;3.87;;
32106;SDS011;18622;51.998;10.440;2023-10-13T14:59:02;13.90;;;4.30;;
32106;SDS011;18622;51.998;10.440;2023-10-13T15:01:30;15.35;;;4.15;;
32106;SDS011;18622;51.998;10.440;2023-10-13T15:03:58;13.70;;;4.73;;
32106;SDS011;18622;51.998;10.440;2023-10-13T15:06:27;18.57;;;4.60;;
32106;SDS011;18622;51.998;10.440;2023-10-13T15:08:58;10.10;;;4.17;;
32106;SDS011;18622;51.998;10.440;2023-10-13T15:11:27;13.68;;;4.65;;
32106;SDS011;18622;51.998;10.440;2023-10-13T15:14:04;10.10;;;4.17;;
32106;SDS011;18622;51.998;10.440;2023-10-13T15:16:32;13.95;;;4.25;;
32106;SDS011;18622;51.998;10.440;2023-10-13T15:19:00;11.90;;;4.70;;
32106;SDS011;18622;51.998;10.440;2023-10-13T15:21:30;16.70;;;4.60;;
32106;SDS011;18622;51.998;10.440;2023-10-13T15:24:01;17.37;;;5.20;;
32106;SDS011;18622;51.998;10.440;2023-10-13T15:26:30;11.30;;;4.30;;
32106;SDS011;18622;51.998;10.440;2023-10-13T15:29:00;19.60;;;4.85;;
32106;SDS011;18622;51.998;10.440;2023-10-13T15:31:28;10.23;;;4.35;;
32106;SDS011;18622;51.998;10.440;2023-10-13T15:34:04;18.73;;;5.07;;
32106;SDS011;18622;51.998;10.440;2023-10-13T15:36:35;11.67;;;4.53;;
32106;SDS011;18622;51.998;10.440;2023-10-13T15:41:33;13.40;;;4.33;;
32106;SDS011;18622;51.998;10.440;2023-10-13T15:44:03;11.35;;;4.80;;
32106;SDS011;18622;51.998;10.440;2023-10-13T15:46:32;15.28;;;4.00;;
32106;SDS011;18622;51.998;10.440;2023-10-13T15:49:04;10.90;;;4.60;;
32106;SDS011;18622;51.998;10.440;2023-10-13T15:51:32;13.83;;;4.53;;
32106;SDS011;18622;51.998;10.440;2023-10-13T15:54:02;9.13;;;3.95;;
32106;SDS011;18622;51.998;10.440;2023-10-13T15:56:32;13.07;;;4.83;;
32106;SDS011;18622;51.998;10.440;2023-10-13T15:59:02;13.85;;;3.83;;
32106;SDS011;18622;51.998;10.440;2023-10-13T16:01:32;13.57;;;5.03;;
32106;SDS011;18622;51.998;10.440;2023-10-13T16:04:00;16.17;;;5.17;;
32106;SDS011;18622;51.998;10.440;2023-10-13T16:08:57;13.75;;;4.78;;
32106;SDS011;18622;51.998;10.440;2023-10-13T16:11:25;14.38;;;4.28;;
32106;SDS011;18622;51.998;10.440;2023-10-13T16:13:53;7.40;;;4.07;;
32106;SDS011;18622;51.998;10.440;2023-10-13T16:16:21;18.00;;;5.20;;
32106;SDS011;18622;51.998;10.440;2023-10-13T16:21:18;9.03;;;4.90;;
32106;SDS011;18622;51.998;10.440;2023-10-13T16:23:46;23.23;;;5.70;;
32106;SDS011;18622;51.998;10.440;2023-10-13T16:26:20;13.05;;;4.42;;
32106;SDS011;18622;51.998;10.440;2023-10-13T16:28:48;9.67;;;4.43;;
32106;SDS011;18622;51.998;10.440;2023-10-13T16:31:17;12.63;;;4.50;;
32106;SDS011;18622;51.998;10.440;2023-10-13T16:33:47;12.98;;;4.70;;
32106;SDS011;18622;51.998;10.440;2023-10-13T16:36:15;10.30;;;4.57;;
32106;SDS011;18622;51.998;10.440;2023-10-13T16:38:43;17.80;;;5.60;;
32106;SDS011;18622;51.998;10.440;2023-10-13T16:41:11;14.63;;;3.90;;
32106;SDS011;18622;51.998;10.440;2023-10-13T16:43:39;11.67;;;4.20;;
32106;SDS011;18622;51.998;10.440;2023-10-13T16:46:14;10.00;;;4.30;;
32106;SDS011;18622;51.998;10.440;2023-10-13T16:48:43;14.80;;;4.90;;
32106;SDS011;18622;51.998;10.440;2023-10-13T16:51:13;10.80;;;4.62;;
32106;SDS011;18622;51.998;10.440;2023-10-13T16:53:46;13.62;;;4.53;;
32106;SDS011;18622;51.998;10.440;2023-10-13T16:56:16;12.00;;;4.10;;
32106;SDS011;18622;51.998;10.440;2023-10-13T16:58:44;11.15;;;4.58;;
32106;SDS011;18622;51.998;10.440;2023-10-13T17:01:12;10.20;;;3.90;;
32106;SDS011;18622;51.998;10.440;2023-10-13T17:06:12;14.78;;;4.85;;
32106;SDS011;18622;51.998;10.440;2023-10-13T17:08:40;15.37;;;4.70;;
32106;SDS011;18622;51.998;10.440;2023-10-13T17:11:09;18.10;;;4.20;;
32106;SDS011;18622;51.998;10.440;2023-10-13T17:13:37;11.63;;;4.20;;
32106;SDS011;18622;51.998;10.440;2023-10-13T17:16:12;10.53;;;4.95;;
32106;SDS011;18622;51.998;10.440;2023-10-13T17:18:43;14.07;;;4.43;;
32106;SDS011;18622;51.998;10.440;2023-10-13T17:21:13;16.57;;;4.50;;
32106;SDS011;18622;51.998;10.440;2023-10-13T17:23:48;10.48;;;3.98;;
32106;SDS011;18622;51.998;10.440;2023-10-13T17:26:14;16.80;;;5.23;;
32106;SDS011;18622;51.998;10.440;2023-10-13T17:28:43;16.82;;;4.58;;
32106;SDS011;18622;51.998;10.440;2023-10-13T17:31:10;17.50;;;4.33;;
32106;SDS011;18622;51.998;10.440;2023-10-13T17:33:39;11.88;;;4.10;;
32106;SDS011;18622;51.998;10.440;2023-10-13T17:36:07;10.70;;;4.47;;
32106;SDS011;18622;51.998;10.440;2023-10-13T17:38:36;12.95;;;4.97;;
32106;SDS011;18622;51.998;10.440;2023-10-13T17:41:05;18.80;;;5.35;;
32106;SDS011;18622;51.998;10.440;2023-10-13T17:43:35;12.10;;;4.78;;
32106;SDS011;18622;51.998;10.440;2023-10-13T17:46:04;16.93;;;4.30;;
32106;SDS011;18622;51.998;10.440;2023-10-13T17:48:36;11.75;;;4.70;;
32106;SDS011;18622;51.998;10.440;2023-10-13T17:51:08;14.45;;;5.00;;
32106;SDS011;18622;51.998;10.440;2023-10-13T17:53:36;11.13;;;3.83;;
32106;SDS011;18622;51.998;10.440;2023-10-13T17:56:07;11.83;;;3.93;;
32106;SDS011;18622;51.998;10.440;2023-10-13T17:58:38;15.85;;;4.30;;
32106;SDS011;18622;51.998;10.440;2023-10-13T18:01:12;12.10;;;4.45;;
32106;SDS011;18622;51.998;10.440;2023-10-13T18:03:39;10.82;;;4.25;;
32106;SDS011;18622;51.998;10.440;2023-10-13T18:06:08;9.68;;;4.05;;
32106;SDS011;18622;51.998;10.440;2023-10-13T18:08:36;9.15;;;4.70;;
32106;SDS011;18622;51.998;10.440;2023-10-13T18:11:04;13.62;;;4.12;;
32106;SDS011;18622;51.998;10.440;2023-10-13T18:13:32;10.77;;;4.50;;
32106;SDS011;18622;51.998;10.440;2023-10-13T18:16:00;11.20;;;4.23;;
32106;SDS011;18622;51.998;10.440;2023-10-13T18:18:31;12.58;;;4.12;;
32106;SDS011;18622;51.998;10.440;2023-10-13T18:21:01;15.17;;;5.77;;
32106;SDS011;18622;51.998;10.440;2023-10-13T18:23:31;9.48;;;4.30;;
32106;SDS011;18622;51.998;10.440;2023-10-13T18:26:02;13.10;;;4.77;;
32106;SDS011;18622;51.998;10.440;2023-10-13T18:28:30;14.78;;;5.12;;
32106;SDS011;18622;51.998;10.440;2023-10-13T18:31:00;11.30;;;4.45;;
32106;SDS011;18622;51.998;10.440;2023-10-13T18:33:33;11.23;;;4.40;;
32106;SDS011;18622;51.998;10.440;2023-10-13T18:38:42;12.60;;;3.90;;
32106;SDS011;18622;51.998;10.440;2023-10-13T18:41:12;10.10;;;4.03;;
32106;SDS011;18622;51.998;10.440;2023-10-13T18:43:42;11.03;;;4.07;;
32106;SDS011;18622;51.998;10.440;2023-10-13T18:46:10;13.83;;;4.70;;
32106;SDS011;18622;51.998;10.440;2023-10-13T18:48:39;13.10;;;4.40;;
32106;SDS011;18622;51.998;10.440;2023-10-13T18:51:10;11.20;;;4.10;;
32106;SDS011;18622;51.998;10.440;2023-10-13T18:53:41;8.88;;;3.87;;
32106;SDS011;18622;51.998;10.440;2023-10-13T18:56:17;12.80;;;4.57;;
32106;SDS011;18622;51.998;10.440;2023-10-13T18:58:43;8.18;;;3.95;;
32106;SDS011;18622;51.998;10.440;2023-10-13T19:01:17;9.63;;;4.10;;
32106;SDS011;18622;51.998;10.440;2023-10-13T19:03:46;7.33;;;3.55;;
32106;SDS011;18622;51.998;10.440;2023-10-13T19:06:14;11.00;;;5.00;;
32106;SDS011;18622;51.998;10.440;2023-10-13T19:08:43;9.23;;;3.67;;
32106;SDS011;18622;51.998;10.440;2023-10-13T19:11:19;16.23;;;4.25;;
32106;SDS011;18622;51.998;10.440;2023-10-13T19:13:47;10.40;;;3.80;;
32106;SDS011;18622;51.998;10.440;2023-10-13T19:16:19;12.50;;;3.65;;